Adams, KY (41201)

11:57 PM EST on December 04, 2016 (GMT -0500)
Keaton | | Change Station

Elev 850 ft 37.96 °N, 82.98 °W | Updated 44 seconds ago

Rain
Rain
45.5 °F
Feels Like 46 °F
N
1.0
Wind Variable Wind from SSW

Today
High -- | Low -- °F
--% Chance of Precip.
Yesterday
High -- | Low -- °F
Precip. -- in
Pressure 29.96 in
Visibility 7.0 miles
Clouds Mostly Cloudy 500 ft
Overcast 900 ft
Windchill 46 °F
Dew Point 43 °F
Humidity 93%
Rainfall 0.05 in
Snow Depth Not available.
7:31 AM 5:11 PM
Waxing Crescent, 28% visible
METAR KSJS 050400Z AUTO 23004KT 7SM RA BKN005 OVC009 08/08 A2996 RMK AO2 T00800080
Pressure 29.96 in
Visibility 7.0 miles
Clouds Mostly Cloudy 500 ft
Overcast 900 ft
Windchill 46 °F
Dew Point 43 °F
Humidity 93%
Rainfall 0.05 in
Snow Depth Not available.
7:31 AM 5:11 PM
Waxing Crescent, 28% visible
METAR KSJS 050400Z AUTO 23004KT 7SM RA BKN005 OVC009 08/08 A2996 RMK AO2 T00800080

10-Day Weather Forecast

Almanac

Astronomy

Dec. 04, 2016 Rise Set
Actual Time
Civil Twilight
Nautical Twilight
Astronomical Twilight
Moon
Length of Visible Light
Length of Day
Tomorrow will be .
, % of the Moon is Illuminated

Today's Extremes

State Highs State Lows

Community

WunderPhotos

Upload Photos

1,955,763 photos uploaded!

WunderBlog® & News

Nearby

Air Quality

  Air Quality AQ Index Pollutant
Not available.

Snow Depth

Station Depth Elevation

Earthquake Activity

City Distance Mag. Time & Date
Minimum magnitude displayed is 2.5.

Coastal Water Temperatures

Place Temperature

Stations

Nearby Weather Stations

Station Location Temp. Windchill Dew Point Humidity Wind Precip. Elev Updated Type
                   

Watches & Warnings

There are currently no watches in effect.